North Conway, New Hampshire
Current Conditions -  °F | °C
As of 5:54 AM on Sunday 23 Nov 2014 (Local Time) from KIZG Reporting Station
Clear Clear  
Wind Chill: 39°   Ceiling: Unl
Heat Index: 42°   Visibility: 10mi
Dew Point: 36°   Wind: 5mph
Humidity: 79%   Direction: 240°WSW
Pressure: 29.97"   Gusts: NA
Location:  44.05°N, 71.13°W
Report Text: KIZG 231054Z AUTO 24004KT 10SM CLR 06/02 A2997 RMK AO2 SLP155 T00560022
Loading
Personal Weather Stations






























Interactive Weather Map New forecast layout! Learn more

10-Day Weather Forecast

Advertisements
Track Severe Weather on mobile